Terminal Aerodrome Forecast
Issued by NWS Charleston, WV

Current Version | Previous Version | Graphics & Text | Print | Product List | Glossary On
Versions: 1 2 3 4 5 6 7 8 9 10 11 12 13 14 15 16 17 18 19 20 21 22 23
000
FTUS41 KRLX 252038 AAA
TAFEKN
TAF AMD
KEKN 252038Z 2521/2618 28010G16KT P6SM FEW070
     FM252300 27007KT P6SM SCT060
     FM260900 VRB02KT 5SM BR FEW001
     FM261300 26005KT P6SM FEW050=

USA.gov is the U.S. government's official web portal to all federal, state and local government web resources and services.